Terminal Aerodrome Forecast
Issued by NWS Charleston, SC

Home | Current Version | Previous Version | Text Only | Print | Product List | Glossary On
Versions: 1 2 3 4 5 6 7 8 9 10 11 12 13 14 15 16 17 18 19 20 21 22 23 24
000
FTUS42 KCHS 270547 CCA
TAFCHS
TAF COR
KCHS 270547Z 2706/2806 02010KT P6SM SCT008 OVC012
      TEMPO 2706/2708 BKN008
     FM271400 VRB06KT P6SM SCT040 BKN250=

USA.gov is the U.S. government's official web portal to all federal, state and local government web resources and services.